Impacts METAR Board
IDs:

KFXE - Ft Lauderdale/Execut, FL, US

Updated at: 2200 UTC 30 Jun 2022
Potential Impact None Slight Moderate High
Time 30/10Z 30/11Z 30/12Z 30/13Z 30/14Z 30/15Z 30/16Z 30/17Z 30/18Z 30/19Z 30/20Z 30/21Z 30/22Z
Temp80 80 83 85 88 89 89 91 90 88 90 89 88
Dewpt78 78 78 76 77 75 76 75 73 75 76 75 75
Altim30.11 30.11 30.11 30.12 30.13 30.13 30.12 30.11 30.10 30.09 30.07 30.08 30.08
VIS10 10 10 10 10 10 10 10 10 10 10 10 10
CIG-- -- -- -- -- -- 39 -- -- -- -- -- --
CoverSCTCLRFEWFEWSCTFEWBKNSCTCLRSCTSCTFEWSCT
FltCatVFRVFRVFRVFRVFRVFRVFRVFRVFRVFRVFRVFRVFR
WX--------------TSVCTS--------
WDir1000160120110110110130120110140130
WSpd3 0 0 5 10 11 13 11 11 11 11 10 10
WGst-- -- -- -- -- -- -- 19 -- -- 19 -- --
Raw hourly METARs
KFXE 300953Z 01003KT 10SM SCT023 SCT029 27/26 A3011 RMK AO2 SLP197 T02670256
KFXE 301053Z 00000KT 10SM CLR 27/26 A3011 RMK AO2 SLP198 T02670256
KFXE 301153Z 00000KT 10SM FEW023 28/26 A3011 RMK AO2 SLP197 T02830256 10283 20256 54000
KFXE 301253Z 16005KT 10SM FEW023 29/24 A3012 RMK AO2 RAB06E22 SLP201 P0000 T02940244
KFXE 301353Z 12010KT 10SM SCT026 SCT031 31/25 A3013 RMK AO2 SLP204 T03110250
KFXE 301453Z 11011KT 10SM FEW032 32/24 A3013 RMK AO2 SLP204 60000 T03170239 51007
KFXE 301553Z AUTO 11013KT 10SM SCT029 BKN039 32/24 A3012 RMK AO2 SLP203 T03170244 TSNO
KFXE 301653Z 11011G19KT 10SM TS FEW025 SCT028 SCT035 33/24 A3011 RMK AO2 TSB45 SLP197 T03280239
KFXE 301800Z 13011KT 10SM VCTS CLR 32/23 A3010 RMK AO2 T03220228
KFXE 301853Z 12011KT 10SM FEW029 SCT035 SCT048 31/24 A3009 RMK AO2 SLP191 T03110239
KFXE 301953Z 11011G19KT 10SM FEW028 SCT035 SCT042 32/24 A3007 RMK AO2 SLP186 T03220244
KFXE 302053Z 14010KT 10SM FEW028 32/24 A3008 RMK AO2 SLP188 T03170239 55008
KFXE 302153Z 13010KT 10SM SCT031 31/24 A3008 RMK AO2 SLP187 T03110239



Page loaded:  22:50 UTC  |   03:50 PM Pacific  |   04:50 PM Mountain  |   05:50 PM Central  |   06:50 PM Eastern

 

ADVISORIES

FORECASTS

FORECASTS

OBSERVATIONS

USER TOOLS

ABOUT US